DNSO

Sadiq Abubakar III International Airport

Sokoto, Nigeria
TAF DNSO 150930Z 1512/1618 26010KT 9999 SCT013 TEMPO 1516/1521 TS BKN012 FEW020CB TEMPO 1518/1523 5000 TSRA FEW019CB
Issued Valid From Valid To
Aug-15 @ 09:30 UTC
(3 hours ago)
Aug-15 @ 12:00 UTC
(41 minutes ago)
Aug-16 @ 18:00 UTC
(-1 days ago)
Aug-15 @ 12:00 to Aug-16 @ 18:00
TAF DNSO 150930Z 1512/1618 26010KT 9999 SCT013
Wind Visibility Clouds
260° at 10 knots 10,000+ meters
  • Scattered at 1,300' AGL
Temporary Aug-15 @ 16:00 to Aug-15 @ 21:00
TEMPO 1516/1521 TS BKN012 FEW020CB
Clouds Conditions
  • Broken at 1,200' AGL
  • Few at 2,000' AGL
  • Thunderstorm
Temporary Aug-15 @ 18:00 to Aug-15 @ 23:00
TEMPO 1518/1523 5000 TSRA FEW019CB
Visibility Clouds Conditions
5,005 meters
  • Few at 1,900' AGL
  • Thunderstorm
  • Rain
TAF DNSO 150930Z 1512/1618 26010KT 9999 SCT013 TEMPO 1516/1521 TS BKN012 FEW020CB TEMPO 1518/1523 5000 TSRA FEW019CB
Issued Aug-15 @ 09:30 UTC
(3 hours ago)
Valid From Aug-15 @ 12:00 UTC
(41 minutes ago)
Valid To Aug-16 @ 18:00 UTC
(-1 days ago)
Aug-15 @ 12:00 - Aug-16 @ 18:00
Wind Visibility
260° at 10 knots 10,000+ meters
Clouds
  • Scattered at 1,300' AGL
Temporary Aug-15 @ 16:00 - Aug-15 @ 21:00
Clouds
  • Broken at 1,200' AGL
  • Few at 2,000' AGL
Conditions
  • Thunderstorm
Temporary Aug-15 @ 18:00 - Aug-15 @ 23:00
Clouds
  • Few at 1,900' AGL
Conditions
  • Thunderstorm
  • Rain